This is the latest recevied weather packets stored in our database for station/object SV9TNF-57. If no packets are shown the sender has not sent any weather packets the latest 10 day(s).
| Time | Temp. | Humidity | Pressure | Rain* | Wind** | Luminosity | Snow |
|---|---|---|---|---|---|---|---|
| 1788273198 | 31.67° C | 31% | 994.3 hPa | 0 mm | 3.58 m/s, 296° | - | - |
| 1788272898 | 31.67° C | 31% | 994.1 hPa | 0 mm | 6.71 m/s, 309° | - | - |
| 1788272598 | 31.67° C | 32% | 993.8 hPa | 0 mm | 8.49 m/s, 297° | - | - |
| 1788272298 | 32.22° C | 31% | 994.3 hPa | 0 mm | 9.83 m/s, 330° | - | - |
| 1788271998 | 32.78° C | 31% | 994.3 hPa | 0 mm | 6.71 m/s, 278° | - | - |
| 1788271698 | 32.22° C | 32% | 994.2 hPa | 0 mm | 3.13 m/s, 347° | - | - |
| 1788271397 | 32.22° C | 33% | 994.4 hPa | 0 mm | 4.92 m/s, 291° | - | - |
| 1788271098 | 31.67° C | 34% | 994.3 hPa | 0 mm | 2.24 m/s, 328° | - | - |
| 1788270797 | 31.67° C | 36% | 994.1 hPa | 0 mm | 2.24 m/s, 254° | - | - |
| 1788270497 | 32.22° C | 35% | 994.1 hPa | 0 mm | 3.13 m/s, 314° | - | - |
| 1788270197 | 31.67° C | 36% | 994 hPa | 0 mm | 5.36 m/s, 340° | - | - |
| 1788269897 | 32.22° C | 35% | 994.2 hPa | 0 mm | 12.07 m/s, 20° | - | - |
| 1788269597 | 31.67° C | 36% | 994.1 hPa | 0 mm | 2.24 m/s, 0° | - | - |
| 1788269297 | 31.67° C | 35% | 994.3 hPa | 0 mm | 6.71 m/s, 235° | - | - |
| 1788268997 | 31.67° C | 35% | 994.2 hPa | 0 mm | 4.47 m/s, 312° | - | - |
| 1788268697 | 31.67° C | 35% | 994.3 hPa | 0 mm | 5.36 m/s, 13° | - | - |
| 1788268397 | 32.22° C | 35% | 994.2 hPa | 0 mm | 7.15 m/s, 53° | - | - |
| 1788268097 | 31.67° C | 38% | 994.4 hPa | 0 mm | 1.34 m/s, 300° | - | - |
| 1788267797 | 31.67° C | 36% | 994.4 hPa | 0 mm | 4.02 m/s, 306° | - | - |
| 1788267496 | 31.67° C | 35% | 994.7 hPa | 0 mm | 9.39 m/s, 347° | - | - |
| 1788267196 | 32.22° C | 39% | 994.6 hPa | 0 mm | 2.24 m/s, 328° | - | - |
| 1788266896 | 32.22° C | 39% | 994.5 hPa | 0 mm | 0.45 m/s, 351° | - | - |
| 1788266596 | 31.67° C | 38% | 994.7 hPa | 0 mm | 5.81 m/s, 10° | - | - |
| 1788266296 | 32.22° C | 37% | 994.8 hPa | 0 mm | 3.58 m/s, 229° | - | - |
| 1788265996 | 32.78° C | 36% | 994.8 hPa | 0 mm | 2.68 m/s, 350° | - | - |
* Rain latest hour (hover to see other rain measurements)
** Current wind speed in m/s (hover to see current wind gust speed)